Time;durP1;ratioP1;P1;durP2;ratioP2;P2;SDS_P1;SDS_P2;PMS_P1;PMS_P2;Temp;Humidity;BMP_temperature;BMP_pressure;BME280_temperature;BME280_humidity;BME280_pressure;Samples;Min_cycle;Max_cycle;Signal;HPM_P1;HPM_P2
2021/06/16 00:02:23;;;;;;;3.63;2.13;;;;;;;22.74;45.23;101989.63;5051609;28;20029;-65
2021/06/16 00:04:49;;;;;;;3.80;2.03;;;;;;;22.76;44.97;101978.81;5052663;28;20051;-66
2021/06/16 00:07:15;;;;;;;3.00;1.95;;;;;;;22.83;44.89;101980.69;5055787;28;20043;-65
2021/06/16 00:09:40;;;;;;;2.13;1.92;;;;;;;22.75;45.22;101977.16;5055713;28;20394;-66
2021/06/16 00:12:07;;;;;;;1.77;1.60;;;;;;;22.80;45.08;101981.00;5055416;28;20029;-66
2021/06/16 00:14:33;;;;;;;2.08;1.65;;;;;;;22.78;45.08;101985.63;5050570;28;20083;-66
2021/06/16 00:16:59;;;;;;;2.75;1.77;;;;;;;22.75;45.18;101975.34;5053541;28;20071;-66
2021/06/16 00:19:24;;;;;;;4.00;2.42;;;;;;;22.79;45.30;101979.31;5052341;28;20110;-65
2021/06/16 00:21:50;;;;;;;3.75;2.00;;;;;;;22.82;45.12;101976.38;5054533;28;20128;-66
2021/06/16 00:24:19;;;;;;;2.47;1.90;;;;;;;22.79;44.93;101970.50;5049260;28;20040;-66
2021/06/16 00:26:45;;;;;;;2.42;1.70;;;;;;;22.78;45.33;101963.53;5048991;28;20763;-66
2021/06/16 00:29:10;;;;;;;2.10;1.90;;;;;;;22.87;44.94;101981.97;5051702;28;20135;-66
2021/06/16 00:31:36;;;;;;;2.10;1.80;;;;;;;22.84;44.98;101965.56;5052447;28;20136;-66
2021/06/16 00:34:02;;;;;;;1.75;1.50;;;;;;;22.83;45.02;101964.75;5051061;28;20037;-66
2021/06/16 00:36:27;;;;;;;1.70;1.60;;;;;;;22.84;45.27;101957.59;5052363;28;20040;-66
2021/06/16 00:38:53;;;;;;;2.67;1.92;;;;;;;22.87;45.24;101965.22;5055448;28;20103;-66
2021/06/16 00:41:19;;;;;;;2.38;1.83;;;;;;;22.87;45.01;101965.22;5055435;28;20041;-66
2021/06/16 00:43:44;;;;;;;2.60;1.77;;;;;;;22.90;45.12;101962.22;5056413;28;20064;-66
2021/06/16 00:46:10;;;;;;;2.42;1.63;;;;;;;22.85;44.96;101964.56;5058314;28;20041;-66
2021/06/16 00:48:35;;;;;;;3.08;1.80;;;;;;;22.89;45.39;101969.34;5055571;28;20035;-66
2021/06/16 00:51:01;;;;;;;2.70;1.63;;;;;;;22.84;45.21;101958.44;5052806;28;20382;-66
2021/06/16 00:53:27;;;;;;;2.05;1.77;;;;;;;22.85;45.18;101957.44;5054746;28;20796;-66
2021/06/16 00:55:52;;;;;;;2.97;1.60;;;;;;;22.87;45.06;101963.38;5059800;28;20488;-66
2021/06/16 00:58:18;;;;;;;1.90;1.50;;;;;;;22.84;44.93;101950.47;5053499;28;20044;-66
2021/06/16 01:00:55;;;;;;;3.92;2.03;;;;;;;22.88;45.30;101949.09;5056908;28;20206;-66
2021/06/16 01:03:45;;;;;;;3.30;2.00;;;;;;;22.89;45.35;101952.59;5054666;28;20041;-65
2021/06/16 01:06:22;;;;;;;2.47;1.70;;;;;;;22.96;45.17;101952.72;5055963;28;20678;-65
2021/06/16 01:09:17;;;;;;;3.28;1.65;;;;;;;22.91;45.40;101943.44;5055340;28;20088;-66
2021/06/16 01:12:04;;;;;;;1.73;1.42;;;;;;;22.96;45.19;101948.22;5054840;28;20135;-65
2021/06/16 01:14:42;;;;;;;1.65;1.45;;;;;;;22.94;45.02;101952.06;5056444;28;20033;-66
2021/06/16 01:17:10;;;;;;;2.58;1.60;;;;;;;22.85;45.17;101935.34;5050632;28;20410;-66
2021/06/16 01:19:50;;;;;;;2.15;1.83;;;;;;;22.91;44.92;101945.28;5056079;28;20039;-65
2021/06/16 01:22:33;;;;;;;1.67;1.52;;;;;;;22.90;45.24;101939.13;5055785;28;20133;-65
2021/06/16 01:25:06;;;;;;;2.33;1.90;;;;;;;22.93;45.03;101943.25;5053640;28;20033;-66
2021/06/16 01:27:33;;;;;;;2.25;1.50;;;;;;;22.85;45.02;101940.66;5059206;28;20763;-66
2021/06/16 01:30:00;;;;;;;2.42;1.70;;;;;;;23.00;45.18;101951.38;5055914;28;20426;-66
2021/06/16 01:32:26;;;;;;;2.22;1.83;;;;;;;22.84;45.29;101925.72;5057001;28;20080;-65
2021/06/16 01:34:53;;;;;;;2.60;1.65;;;;;;;22.89;45.34;101937.47;5053087;28;20461;-66
2021/06/16 01:37:18;;;;;;;1.55;1.27;;;;;;;22.89;45.41;101942.78;5057732;28;20037;-66
2021/06/16 01:39:45;;;;;;;2.53;1.65;;;;;;;22.93;44.99;101937.94;5053735;28;20037;-65
2021/06/16 01:42:16;;;;;;;4.45;1.73;;;;;;;22.94;45.02;101934.28;5058047;28;20042;-66
2021/06/16 01:44:43;;;;;;;3.45;1.67;;;;;;;22.97;44.85;101933.94;5051423;28;20560;-66
2021/06/16 01:47:10;;;;;;;1.92;1.50;;;;;;;22.88;45.13;101925.19;5051185;28;20052;-66
2021/06/16 01:49:37;;;;;;;2.28;1.55;;;;;;;22.91;45.15;101927.50;5070428;28;20090;-65
2021/06/16 01:52:04;;;;;;;1.70;1.58;;;;;;;22.96;45.06;101929.63;5054799;28;20045;-66
2021/06/16 01:54:31;;;;;;;1.58;1.40;;;;;;;22.89;44.99;101924.19;5055804;28;20116;-66
2021/06/16 01:56:58;;;;;;;2.35;1.52;;;;;;;22.99;44.90;101925.81;5053353;28;20045;-66
2021/06/16 01:59:25;;;;;;;2.53;1.80;;;;;;;22.93;44.97;101924.66;5055179;28;20123;-66
2021/06/16 02:01:52;;;;;;;1.88;1.50;;;;;;;22.90;45.37;101923.19;5054317;28;20479;-66
2021/06/16 02:04:19;;;;;;;1.98;1.60;;;;;;;22.92;44.97;101915.06;5054834;28;20047;-66
2021/06/16 02:06:49;;;;;;;2.55;1.42;;;;;;;22.90;45.43;101919.72;5059338;28;20039;-66
2021/06/16 02:09:17;;;;;;;1.77;1.63;;;;;;;22.88;45.28;101911.09;5037500;28;20037;-66
2021/06/16 02:11:44;;;;;;;2.90;1.55;;;;;;;22.93;45.37;101914.06;5055913;28;20047;-66
2021/06/16 02:14:13;;;;;;;1.75;1.50;;;;;;;22.91;45.41;101910.75;5055303;28;20048;-66
2021/06/16 02:17:01;;;;;;;1.65;1.50;;;;;;;22.92;45.12;101907.91;5053672;28;20098;-65
2021/06/16 02:19:30;;;;;;;1.60;1.50;;;;;;;22.91;45.30;101897.47;5055435;28;20037;-66
2021/06/16 02:21:57;;;;;;;1.80;1.58;;;;;;;22.90;44.97;101901.13;5054875;28;20024;-66
2021/06/16 02:24:23;;;;;;;1.75;1.50;;;;;;;22.89;45.47;101902.94;5053550;28;20053;-65
2021/06/16 02:26:49;;;;;;;3.42;1.60;;;;;;;22.91;45.35;101911.56;5050567;28;20033;-66
2021/06/16 02:29:15;;;;;;;2.55;1.77;;;;;;;22.96;45.13;101915.53;5054019;28;20119;-66
2021/06/16 02:31:42;;;;;;;2.70;1.50;;;;;;;22.90;45.16;101899.28;5051181;28;20051;-66
2021/06/16 02:34:08;;;;;;;1.50;1.38;;;;;;;22.91;45.48;101903.59;5049558;28;20099;-66
2021/06/16 02:36:44;;;;;;;1.55;1.35;;;;;;;22.88;45.47;101903.13;5054786;28;20039;-66
2021/06/16 02:39:13;;;;;;;1.27;1.17;;;;;;;22.98;45.00;101905.53;5051751;28;20029;-65
2021/06/16 02:41:42;;;;;;;1.70;1.42;;;;;;;22.94;44.97;101894.44;5055372;28;20036;-66
2021/06/16 02:44:08;;;;;;;1.77;1.60;;;;;;;22.86;45.32;101891.84;5051094;28;20987;-66
2021/06/16 02:46:35;;;;;;;1.38;1.27;;;;;;;22.94;45.47;101897.09;5054313;28;20032;-65
2021/06/16 02:49:04;;;;;;;1.40;1.30;;;;;;;22.93;45.32;101890.16;5050897;28;20129;-66
2021/06/16 02:51:31;;;;;;;1.67;1.58;;;;;;;22.94;45.35;101883.81;5055205;28;20033;-66
2021/06/16 02:53:57;;;;;;;2.00;1.60;;;;;;;22.86;45.24;101878.56;5056369;28;20406;-65
2021/06/16 02:56:23;;;;;;;2.38;1.58;;;;;;;22.85;45.43;101874.25;5052446;28;20060;-66
2021/06/16 02:58:50;;;;;;;2.15;1.65;;;;;;;22.89;45.54;101870.25;5062769;28;20037;-66
2021/06/16 03:01:18;;;;;;;2.10;1.77;;;;;;;22.91;45.09;101873.56;5047667;28;20098;-65
2021/06/16 03:03:48;;;;;;;3.13;1.75;;;;;;;22.94;45.19;101867.88;5052008;28;20047;-66
2021/06/16 03:06:16;;;;;;;;;;;;;;;22.94;45.05;101872.38;5052454;28;20051;-65
2021/06/16 03:08:44;;;;;;;2.10;1.42;;;;;;;22.90;45.44;101867.41;5052819;28;19917;-66
2021/06/16 03:11:11;;;;;;;3.35;1.80;;;;;;;22.87;45.25;101873.09;5051075;28;20131;-66
2021/06/16 03:13:36;;;;;;;1.25;1.15;;;;;;;22.82;45.21;101867.47;5051886;28;20178;-65
2021/06/16 03:16:04;;;;;;;2.78;1.63;;;;;;;22.93;45.11;101876.88;5049006;28;20045;-66
2021/06/16 03:18:30;;;;;;;2.33;1.70;;;;;;;22.91;45.20;101869.06;5053831;28;20042;-65
2021/06/16 03:20:58;;;;;;;1.50;1.40;;;;;;;22.90;45.13;101867.41;5047314;28;20041;-66
2021/06/16 03:23:25;;;;;;;1.45;1.35;;;;;;;22.89;45.31;101868.44;5051067;28;20486;-66
2021/06/16 03:25:51;;;;;;;3.20;1.65;;;;;;;22.90;45.05;101870.06;5052880;28;20038;-66
2021/06/16 03:28:18;;;;;;;1.65;1.55;;;;;;;22.90;45.19;101863.94;5050199;28;20123;-65
2021/06/16 03:30:44;;;;;;;1.48;1.20;;;;;;;22.94;45.22;101872.38;5053075;28;20053;-66
2021/06/16 03:33:10;;;;;;;2.03;1.20;;;;;;;22.87;45.32;101867.78;5066619;28;20076;-66
2021/06/16 03:35:36;;;;;;;1.63;1.52;;;;;;;22.90;45.30;101867.41;5054105;28;20036;-66
2021/06/16 03:38:03;;;;;;;1.95;1.67;;;;;;;22.88;45.31;101860.63;5052163;28;20317;-66
2021/06/16 03:40:29;;;;;;;2.30;1.30;;;;;;;22.84;45.14;101859.34;5050336;28;20391;-66
2021/06/16 03:42:57;;;;;;;2.90;1.50;;;;;;;22.84;45.20;101860.16;5051500;28;20087;-66
2021/06/16 03:45:25;;;;;;;1.85;1.50;;;;;;;22.82;45.54;101850.72;5053780;28;20478;-66
2021/06/16 03:47:56;;;;;;;2.40;1.60;;;;;;;22.83;45.19;101857.69;5054074;28;20028;-65
2021/06/16 03:50:22;;;;;;;1.92;1.50;;;;;;;;;;5050462;28;20028;-65
2021/06/16 03:52:48;;;;;;;2.70;1.52;;;;;;;22.87;45.08;101864.28;5055790;28;20040;-66
2021/06/16 03:55:16;;;;;;;1.67;1.30;;;;;;;22.86;45.32;101852.00;5049819;28;20460;-66
2021/06/16 03:57:42;;;;;;;2.67;1.45;;;;;;;22.81;45.56;101863.13;5048705;28;20033;-66
2021/06/16 04:00:09;;;;;;;1.75;1.45;;;;;;;22.86;45.19;101855.50;5037562;28;20061;-66
2021/06/16 04:02:35;;;;;;;1.70;1.60;;;;;;;;;;5053593;28;20029;-65
2021/06/16 04:05:06;;;;;;;2.28;1.40;;;;;;;22.85;45.30;101851.19;5053133;28;20040;-66
2021/06/16 04:07:33;;;;;;;1.50;1.40;;;;;;;22.85;45.33;101847.72;5054273;28;20043;-65
2021/06/16 04:09:59;;;;;;;1.85;1.48;;;;;;;22.80;45.15;101853.53;5050009;28;20395;-65
2021/06/16 04:12:25;;;;;;;1.50;1.40;;;;;;;22.86;45.19;101852.00;5070886;28;20068;-66
2021/06/16 04:14:51;;;;;;;1.77;1.38;;;;;;;22.83;45.13;101855.84;5057705;28;20140;-65
2021/06/16 04:17:22;;;;;;;1.70;1.58;;;;;;;22.77;45.23;101843.22;5058027;28;20037;-66
2021/06/16 04:19:49;;;;;;;3.58;1.45;;;;;;;22.83;45.19;101850.53;5053320;28;20029;-66
2021/06/16 04:22:15;;;;;;;2.67;1.80;;;;;;;22.88;45.32;101850.00;5054276;28;20437;-66
2021/06/16 04:24:41;;;;;;;2.58;1.67;;;;;;;22.85;45.02;101858.34;5058960;28;20105;-66
2021/06/16 04:27:07;;;;;;;1.70;1.60;;;;;;;22.80;45.36;101853.53;5054664;28;20099;-66
2021/06/16 04:29:33;;;;;;;2.20;1.60;;;;;;;22.78;45.21;101854.66;5057333;28;20032;-66
2021/06/16 04:31:58;;;;;;;1.98;1.45;;;;;;;22.81;45.42;101844.56;5055094;28;20048;-66
2021/06/16 04:34:24;;;;;;;1.83;1.23;;;;;;;22.85;45.02;101847.72;5053437;28;20078;-65
2021/06/16 04:36:49;;;;;;;2.05;1.70;;;;;;;22.80;45.48;101839.38;5051711;28;20048;-66
2021/06/16 04:39:18;;;;;;;2.58;1.67;;;;;;;22.80;45.34;101839.38;5048242;28;20040;-66
2021/06/16 04:41:44;;;;;;;2.22;1.60;;;;;;;22.75;45.33;101842.56;5054462;28;20111;-66
2021/06/16 04:44:10;;;;;;;2.13;1.40;;;;;;;22.76;45.21;101830.94;5052952;28;20482;-65
2021/06/16 04:46:36;;;;;;;1.48;1.38;;;;;;;22.77;45.29;101835.25;5071450;28;20067;-66
2021/06/16 04:49:02;;;;;;;3.13;1.50;;;;;;;22.84;45.28;101840.75;5054079;28;20063;-66
2021/06/16 04:51:28;;;;;;;2.40;1.27;;;;;;;22.84;45.38;101841.56;5057945;28;20061;-66
2021/06/16 04:53:53;;;;;;;3.38;1.50;;;;;;;22.85;45.13;101837.09;5055700;28;20129;-66
2021/06/16 04:56:19;;;;;;;1.65;1.27;;;;;;;22.78;45.30;101833.44;5056845;28;20046;-66
2021/06/16 04:58:45;;;;;;;2.22;1.42;;;;;;;22.76;45.36;101822.97;5057762;28;20036;-66
2021/06/16 05:01:11;;;;;;;1.80;1.67;;;;;;;22.81;45.52;101825.97;5054994;28;20112;-66
2021/06/16 05:03:36;;;;;;;1.60;1.40;;;;;;;22.78;45.23;101817.50;5052962;28;20038;-65
2021/06/16 05:06:02;;;;;;;1.92;1.38;;;;;;;22.76;45.61;101817.66;5059288;28;20036;-66
2021/06/16 05:08:27;;;;;;;2.03;1.50;;;;;;;22.79;45.54;101812.00;5053911;28;20036;-66
2021/06/16 05:10:53;;;;;;;2.88;1.92;;;;;;;22.82;45.07;101819.69;5057406;28;20036;-66
2021/06/16 05:13:26;;;;;;;2.08;1.50;;;;;;;22.75;45.48;101807.22;5055847;28;20153;-66
2021/06/16 05:15:52;;;;;;;2.10;1.48;;;;;;;22.83;45.27;101809.88;5053705;28;20060;-66
2021/06/16 05:18:18;;;;;;;1.30;1.20;;;;;;;22.83;45.26;101808.06;5056901;28;20047;-66
2021/06/16 05:20:45;;;;;;;2.35;1.50;;;;;;;22.80;45.43;101810.19;5055376;28;20032;-65
2021/06/16 05:23:10;;;;;;;1.83;1.60;;;;;;;;;;5045045;28;20048;-66
2021/06/16 05:25:36;;;;;;;4.05;3.55;;;;;;;22.24;44.95;101807.63;5039735;28;20037;-67
2021/06/16 05:28:02;;;;;;;4.30;3.25;;;;;;;22.32;44.67;101804.16;5047931;28;20485;-67
2021/06/16 05:30:28;;;;;;;5.28;3.40;;;;;;;22.34;44.52;101806.63;5045675;28;20033;-66
2021/06/16 05:32:53;;;;;;;9.18;5.03;;;;;;;21.85;45.09;101804.91;5048054;28;20827;-66
2021/06/16 05:35:19;;;;;;;8.57;4.40;;;;;;;22.12;44.51;101808.22;5046312;28;20033;-66
2021/06/16 05:37:46;;;;;;;7.60;4.75;;;;;;;22.15;44.13;101789.28;5049791;28;20483;-66
2021/06/16 05:40:14;;;;;;;6.60;4.32;;;;;;;22.03;44.60;101796.75;5040779;28;20623;-66
2021/06/16 05:42:40;;;;;;;7.93;3.95;;;;;;;21.72;45.24;101804.59;5035374;28;20045;-65
2021/06/16 05:45:06;;;;;;;8.90;3.95;;;;;;;21.77;45.54;101796.16;5042555;28;20036;-65
2021/06/16 05:47:32;;;;;;;4.60;3.25;;;;;;;21.81;45.61;101786.88;5055124;28;20036;-65
2021/06/16 05:49:58;;;;;;;5.15;2.97;;;;;;;21.88;45.54;101788.66;5050516;28;20033;-66
2021/06/16 05:52:24;;;;;;;4.38;2.78;;;;;;;22.01;45.63;101794.28;5054945;28;20528;-65
2021/06/16 05:54:49;;;;;;;5.63;3.22;;;;;;;22.09;45.30;101790.00;5047370;28;20045;-66
2021/06/16 05:57:15;;;;;;;5.30;2.47;;;;;;;22.06;45.42;101772.56;5054718;28;20053;-66
2021/06/16 05:59:41;;;;;;;4.63;2.88;;;;;;;22.10;45.69;101770.41;5050920;28;20037;-65
2021/06/16 06:02:07;;;;;;;4.05;2.33;;;;;;;22.16;45.83;101775.84;5046413;28;20025;-65
2021/06/16 06:04:34;;;;;;;3.78;2.28;;;;;;;22.21;45.81;101778.81;5044022;28;20572;-65
2021/06/16 06:06:59;;;;;;;6.00;2.55;;;;;;;22.25;45.81;101784.59;5051668;28;20060;-65
2021/06/16 06:09:25;;;;;;;5.55;2.42;;;;;;;22.27;45.91;101778.13;5057403;28;20037;-64
2021/06/16 06:11:50;;;;;;;7.80;2.70;;;;;;;22.27;46.18;101778.13;5055398;28;20067;-64
2021/06/16 06:14:16;;;;;;;7.03;2.90;;;;;;;22.29;46.23;101778.78;5055035;28;20471;-65
2021/06/16 06:16:41;;;;;;;3.33;2.30;;;;;;;22.25;46.26;101769.50;5050568;28;20036;-64
2021/06/16 06:19:07;;;;;;;6.13;2.70;;;;;;;22.28;46.16;101773.66;5054429;28;20456;-64
2021/06/16 06:21:33;;;;;;;5.03;2.47;;;;;;;22.30;46.56;101769.81;5053422;28;20044;-64
2021/06/16 06:24:00;;;;;;;6.03;2.80;;;;;;;22.33;46.32;101765.16;5055590;28;20041;-64
2021/06/16 06:26:25;;;;;;;3.63;2.33;;;;;;;22.37;46.50;101774.44;5049035;28;20033;-64
2021/06/16 06:28:51;;;;;;;4.68;2.33;;;;;;;22.37;46.39;101766.47;5042552;28;20044;-65
2021/06/16 06:31:17;;;;;;;5.13;2.33;;;;;;;22.39;46.76;101772.44;5044449;28;20056;-64
2021/06/16 06:33:42;;;;;;;4.13;2.88;;;;;;;22.34;46.09;101772.97;5053211;28;20143;-64
2021/06/16 06:36:08;;;;;;;7.78;3.78;;;;;;;22.27;46.33;101761.41;5052328;28;20036;-64
2021/06/16 06:38:33;;;;;;;7.15;3.97;;;;;;;22.29;46.17;101772.66;5049021;28;20449;-64
2021/06/16 06:40:59;;;;;;;6.32;3.65;;;;;;;22.23;46.28;101771.50;5053910;28;20458;-64
2021/06/16 06:43:25;;;;;;;6.43;3.70;;;;;;;22.20;46.66;101768.38;5055305;28;20047;-64
2021/06/16 06:45:50;;;;;;;6.35;3.58;;;;;;;22.19;46.65;101758.75;5054268;28;20070;-64
2021/06/16 06:48:16;;;;;;;6.88;4.05;;;;;;;22.40;46.49;101764.28;5035850;28;20048;-67
2021/06/16 06:50:41;;;;;;;5.05;3.50;;;;;;;22.57;45.86;101763.19;5028374;28;20078;-65
2021/06/16 06:53:07;;;;;;;7.07;3.72;;;;;;;22.76;45.03;101753.94;5042145;28;20747;-65
2021/06/16 06:55:33;;;;;;;11.52;3.97;;;;;;;23.01;45.00;101757.28;5036209;28;20033;-68
2021/06/16 06:58:00;;;;;;;3.72;3.15;;;;;;;23.25;44.78;101760.75;4958795;28;20718;-64
2021/06/16 07:00:25;;;;;;;7.55;3.70;;;;;;;23.19;44.75;101756.97;5035540;28;20654;-65
2021/06/16 07:02:51;;;;;;;5.63;3.78;;;;;;;23.45;44.27;101752.06;5039785;28;20578;-64
2021/06/16 07:05:17;;;;;;;6.07;3.65;;;;;;;23.51;44.10;101755.81;5041256;28;20037;-63
2021/06/16 07:07:43;;;;;;;8.48;3.88;;;;;;;22.50;46.85;101751.63;5041976;28;20498;-66
2021/06/16 07:10:09;;;;;;;6.97;3.33;;;;;;;21.46;50.19;101753.66;5039085;28;20107;-68
2021/06/16 07:12:35;;;;;;;10.30;4.00;;;;;;;21.13;50.99;101753.63;5010706;28;20171;-70
2021/06/16 07:15:01;;;;;;;10.07;4.53;;;;;;;21.36;50.51;101749.38;5017997;28;20360;-69
2021/06/16 07:17:26;;;;;;;7.60;3.70;;;;;;;21.46;50.13;101746.53;5052363;28;20593;-72
2021/06/16 07:19:52;;;;;;;7.75;3.17;;;;;;;21.76;49.81;101752.94;4996723;28;20075;-70
2021/06/16 07:22:17;;;;;;;6.93;4.28;;;;;;;21.86;49.25;101734.16;5052803;28;20515;-70
2021/06/16 07:24:46;;;;;;;6.50;2.97;;;;;;;22.13;48.93;101741.72;5014262;28;20037;-70
2021/06/16 07:27:15;;;;;;;9.57;4.30;;;;;;;22.21;48.46;101728.41;5050536;28;20131;-72
2021/06/16 07:29:40;;;;;;;6.30;3.20;;;;;;;22.43;48.67;101739.22;4996226;28;20040;-68
2021/06/16 07:32:07;;;;;;;5.97;3.22;;;;;;;22.51;48.29;101734.72;5056597;28;20061;-67
2021/06/16 07:34:32;;;;;;;8.00;3.78;;;;;;;22.19;48.69;101729.56;5026388;28;20036;-68
2021/06/16 07:36:58;;;;;;;9.13;4.90;;;;;;;21.82;49.74;101716.94;5051655;28;20039;-71
2021/06/16 07:39:24;;;;;;;5.38;3.20;;;;;;;22.02;49.54;101732.28;5026254;28;20029;-66
2021/06/16 07:41:49;;;;;;;8.43;3.92;;;;;;;22.23;49.33;101722.91;5051417;28;20530;-67
2021/06/16 07:44:15;;;;;;;8.48;4.40;;;;;;;22.62;47.86;101717.53;5027380;28;20041;-68
2021/06/16 07:46:41;;;;;;;7.80;4.10;;;;;;;22.70;48.16;101720.16;5052400;28;20127;-67
2021/06/16 07:49:07;;;;;;;8.65;3.60;;;;;;;22.72;47.89;101710.16;5027544;28;20040;-68
2021/06/16 07:51:33;;;;;;;9.77;4.38;;;;;;;22.71;48.26;101707.69;5056469;28;20514;-66
2021/06/16 07:53:59;;;;;;;8.07;3.75;;;;;;;22.58;48.52;101705.63;5031282;28;20041;-66
2021/06/16 07:56:24;;;;;;;7.22;3.40;;;;;;;22.63;48.47;101708.59;5053648;28;20041;-66
2021/06/16 07:58:50;;;;;;;8.48;3.85;;;;;;;22.32;49.64;101700.66;5027461;28;20112;-67
2021/06/16 08:01:17;;;;;;;7.85;3.58;;;;;;;22.16;49.54;101708.72;5044194;28;20098;-69
2021/06/16 08:03:43;;;;;;;13.65;3.65;;;;;;;22.13;49.82;101712.53;5049759;28;20145;-67
2021/06/16 08:06:09;;;;;;;4.50;2.80;;;;;;;22.09;50.19;101702.47;5026178;28;20790;-72
2021/06/16 08:08:35;;;;;;;6.57;3.95;;;;;;;22.24;49.43;101698.03;5028761;28;20073;-71
2021/06/16 08:11:01;;;;;;;8.00;4.88;;;;;;;22.22;49.57;101698.22;5017712;28;20057;-72
2021/06/16 08:13:27;;;;;;;10.27;4.47;;;;;;;22.15;49.52;101699.94;5047379;28;20116;-68
2021/06/16 08:15:53;;;;;;;7.32;4.10;;;;;;;22.03;49.31;101695.97;5023942;28;20037;-70
2021/06/16 08:18:18;;;;;;;8.18;3.85;;;;;;;22.08;49.53;101692.81;5064509;28;20074;-69
2021/06/16 08:20:44;;;;;;;6.80;3.35;;;;;;;22.28;49.09;101691.41;5020677;28;20048;-70
2021/06/16 08:23:10;;;;;;;7.50;3.65;;;;;;;22.29;49.41;101693.88;5056213;28;20451;-68
2021/06/16 08:25:36;;;;;;;10.35;4.20;;;;;;;22.68;48.39;101679.69;5026363;28;20401;-69
2021/06/16 08:28:02;;;;;;;6.75;3.13;;;;;;;23.00;47.83;101685.75;5046253;28;20051;-65
2021/06/16 08:30:28;;;;;;;7.88;3.55;;;;;;;22.73;48.25;101669.34;5016527;28;20041;-68
2021/06/16 08:32:54;;;;;;;6.20;3.78;;;;;;;22.36;49.33;101672.75;5041474;28;20116;-70
2021/06/16 08:35:19;;;;;;;5.38;3.33;;;;;;;22.73;48.34;101672.00;5023823;28;20074;-68
2021/06/16 08:37:46;;;;;;;9.35;3.30;;;;;;;22.84;48.02;101676.09;5048069;28;20164;-70
2021/06/16 08:40:13;;;;;;;7.10;3.60;;;;;;;22.67;47.85;101669.25;5012016;28;20037;-70
2021/06/16 08:42:39;;;;;;;6.20;3.53;;;;;;;22.92;46.94;101665.38;5046983;28;20041;-66
2021/06/16 08:45:07;;;;;;;7.90;3.58;;;;;;;22.58;47.79;101671.13;5022063;28;20044;-68
2021/06/16 08:47:34;;;;;;;7.75;3.20;;;;;;;22.80;46.67;101657.00;5049778;28;20384;-66
2021/06/16 08:50:04;;;;;;;7.15;3.22;;;;;;;22.91;46.57;101667.22;5017737;28;20079;-68
2021/06/16 08:52:30;;;;;;;5.97;3.30;;;;;;;22.79;47.08;101671.25;5044538;28;20044;-68
2021/06/16 08:54:56;;;;;;;7.53;3.05;;;;;;;22.88;47.54;101670.25;5021228;28;20044;-68
2021/06/16 08:57:21;;;;;;;18.17;10.05;;;;;;;22.66;47.21;101668.41;5054030;28;20065;-67
2021/06/16 08:59:47;;;;;;;9.38;5.97;;;;;;;22.64;47.54;101661.63;5023881;28;20051;-69
2021/06/16 09:02:13;;;;;;;10.48;5.05;;;;;;;22.80;44.73;101657.00;5063726;28;20242;-69
2021/06/16 09:04:48;;;;;;;6.53;4.30;;;;;;;22.63;46.22;101667.94;5030468;28;20128;-69
2021/06/16 09:07:19;;;;;;;8.88;4.35;;;;;;;22.94;47.75;101636.00;5037529;28;20055;-69
2021/06/16 09:09:47;;;;;;;6.88;3.58;;;;;;;22.81;45.66;101656.00;5023020;28;20167;-71
2021/06/16 09:12:18;;;;;;;5.03;3.28;;;;;;;23.10;47.57;101663.22;5039668;28;20047;-71
2021/06/16 09:14:53;;;;;;;5.90;3.08;;;;;;;22.59;43.63;101656.84;5017428;28;23867;-69
2021/06/16 09:17:21;;;;;;;6.10;2.70;;;;;;;22.82;47.92;101659.53;5044636;28;20487;-71
2021/06/16 09:19:56;;;;;;;7.95;2.90;;;;;;;22.83;44.13;101655.84;5021772;28;21069;-70
2021/06/16 09:22:35;;;;;;;6.05;2.60;;;;;;;22.87;47.08;101660.63;5048643;28;20529;-70
2021/06/16 09:25:06;;;;;;;6.30;2.70;;;;;;;22.99;44.19;101660.19;5012726;28;21016;-69
2021/06/16 09:27:46;;;;;;;5.07;3.05;;;;;;;22.97;46.33;101652.38;5056744;28;20067;-71
2021/06/16 09:30:23;;;;;;;5.38;2.72;;;;;;;22.89;43.40;101663.09;5023436;28;20037;-69
2021/06/16 09:32:58;;;;;;;4.65;2.47;;;;;;;22.93;46.38;101651.09;5048752;28;20048;-70
2021/06/16 09:35:31;;;;;;;7.05;3.03;;;;;;;22.95;42.84;101666.84;5024423;28;20033;-69
2021/06/16 09:37:59;;;;;;;4.85;2.83;;;;;;;22.66;47.97;101656.97;5040325;28;20040;-68
2021/06/16 09:40:31;;;;;;;3.13;2.40;;;;;;;22.92;43.60;101655.59;5020936;28;20562;-69
2021/06/16 09:43:01;;;;;;;5.90;2.90;;;;;;;22.72;47.25;101650.94;5047796;28;20383;-70
2021/06/16 09:45:28;;;;;;;4.45;2.53;;;;;;;22.80;46.61;101641.09;5017725;28;20567;-70
2021/06/16 09:47:53;;;;;;;2.67;2.40;;;;;;;22.98;46.36;101654.06;5042384;28;20135;-70
2021/06/16 09:50:24;;;;;;;4.05;2.17;;;;;;;23.07;46.04;101646.81;5015911;28;20391;-70
2021/06/16 09:52:50;;;;;;;4.78;2.53;;;;;;;23.11;46.28;101634.81;5046319;28;20044;-70
2021/06/16 09:55:30;;;;;;;3.05;2.17;;;;;;;23.16;46.00;101641.25;5013402;28;20386;-68
2021/06/16 09:58:17;;;;;;;5.07;2.50;;;;;;;23.21;46.23;101643.38;5054427;28;20048;-67
2021/06/16 10:00:52;;;;;;;2.97;2.38;;;;;;;23.31;46.04;101645.72;5015880;28;20040;-68
2021/06/16 10:03:23;;;;;;;3.85;2.53;;;;;;;23.32;45.98;101640.22;5046632;28;20076;-69
2021/06/16 10:06:04;;;;;;;3.88;2.75;;;;;;;23.35;46.04;101645.22;5041268;28;20037;-68
2021/06/16 10:08:31;;;;;;;4.72;2.50;;;;;;;23.28;46.06;101616.88;5053961;28;20033;-69
2021/06/16 10:10:57;;;;;;;3.03;2.40;;;;;;;23.38;46.03;101639.53;5031672;28;20355;-69
2021/06/16 10:13:25;;;;;;;3.45;2.30;;;;;;;23.39;46.03;101632.38;5048778;28;20097;-69
2021/06/16 10:15:51;;;;;;;4.32;2.53;;;;;;;23.38;45.96;101633.38;5041773;28;20029;-69
2021/06/16 10:18:17;;;;;;;3.40;2.22;;;;;;;23.37;46.08;101627.25;5042982;28;20418;-69
2021/06/16 10:20:42;;;;;;;3.38;2.60;;;;;;;23.39;46.10;101625.22;5050154;28;20427;-66
2021/06/16 10:23:11;;;;;;;5.60;2.80;;;;;;;23.20;47.14;101620.47;5028817;28;20067;-68
2021/06/16 10:25:37;;;;;;;7.25;2.97;;;;;;;23.04;47.99;101610.00;5049179;28;20060;-68
2021/06/16 10:28:03;;;;;;;6.05;2.85;;;;;;;23.12;47.54;101609.91;5024913;28;20041;-70
2021/06/16 10:30:33;;;;;;;6.65;2.70;;;;;;;23.22;47.31;101615.78;5052071;28;20161;-68
2021/06/16 10:32:59;;;;;;;3.92;2.63;;;;;;;23.28;46.99;101608.91;5027404;28;20187;-68
2021/06/16 10:35:33;;;;;;;5.30;2.70;;;;;;;23.32;47.14;101607.53;5032585;28;20187;-68
2021/06/16 10:38:13;;;;;;;5.07;2.83;;;;;;;23.30;47.11;101596.25;5033549;28;20037;-69
2021/06/16 10:40:51;;;;;;;5.13;3.13;;;;;;;23.34;46.70;101609.00;5052711;28;20090;-69
2021/06/16 10:43:19;;;;;;;4.13;2.50;;;;;;;23.35;47.05;101608.00;5044731;28;20079;-66
2021/06/16 10:45:52;;;;;;;4.95;2.70;;;;;;;23.35;46.77;101604.53;5046891;28;20028;-67
2021/06/16 10:48:18;;;;;;;4.60;2.72;;;;;;;23.32;46.67;101597.72;5041024;28;20477;-66
2021/06/16 10:50:53;;;;;;;4.57;3.00;;;;;;;23.35;46.84;101607.19;5039896;28;20041;-66
2021/06/16 10:53:21;;;;;;;5.97;2.60;;;;;;;23.28;47.07;101590.31;5031940;28;20036;-66
2021/06/16 10:55:56;;;;;;;2.78;2.47;;;;;;;23.35;46.87;101602.69;5040532;28;20049;-67
2021/06/16 10:58:29;;;;;;;4.25;2.80;;;;;;;23.36;46.85;101604.34;5041365;28;20130;-66
2021/06/16 11:01:15;;;;;;;3.35;2.63;;;;;;;23.36;46.89;101598.19;5022706;28;20033;-66
2021/06/16 11:03:50;;;;;;;3.35;2.38;;;;;;;23.36;46.96;101598.19;5028576;28;20450;-66
2021/06/16 11:06:34;;;;;;;3.90;2.80;;;;;;;23.35;47.11;101597.38;5046116;28;20044;-66
2021/06/16 11:09:02;;;;;;;3.00;2.40;;;;;;;23.35;47.05;101597.38;5025705;28;20036;-66
2021/06/16 11:11:50;;;;;;;3.25;2.53;;;;;;;23.35;47.20;101591.22;5046309;28;20043;-67
2021/06/16 11:14:39;;;;;;;2.92;2.30;;;;;;;23.35;47.14;101592.06;5034989;28;20380;-66
2021/06/16 11:17:07;;;;;;;3.90;2.42;;;;;;;23.36;47.05;101582.25;5033586;28;21085;-66
2021/06/16 11:19:35;;;;;;;11.73;2.92;;;;;;;23.35;47.29;101567.31;5055530;28;20144;-66
2021/06/16 11:22:11;;;;;;;3.20;2.17;;;;;;;23.35;47.19;101569.97;5029188;28;20040;-68
2021/06/16 11:25:10;;;;;;;3.60;2.35;;;;;;;23.35;47.30;101564.66;5050859;28;20166;-68
2021/06/16 11:27:54;;;;;;;4.75;2.50;;;;;;;23.34;47.45;101563.81;5028938;28;20037;-67
2021/06/16 11:30:30;;;;;;;3.47;2.35;;;;;;;23.36;47.48;101560.97;5052659;28;20045;-68
2021/06/16 11:33:11;;;;;;;2.78;2.50;;;;;;;23.35;47.49;101559.34;5048025;28;20062;-68